createdAt,value
2017-06-16T13:19:53.922Z,770
2017-06-16T13:20:56.598Z,820
2017-06-16T13:21:59.186Z,820
2017-06-16T13:23:01.780Z,785
2017-06-16T13:24:04.267Z,795
2017-06-16T13:25:06.855Z,790
2017-06-16T13:26:09.370Z,785
2017-06-16T13:27:11.998Z,775
2017-06-16T13:28:14.604Z,820
2017-06-16T13:29:17.107Z,880
2017-06-16T13:30:19.640Z,865
2017-06-16T13:31:22.246Z,880
2017-06-16T13:32:24.727Z,905
2017-06-16T13:33:27.418Z,915
2017-06-16T13:34:30.099Z,910
2017-06-16T13:35:32.794Z,860
2017-06-16T13:36:35.470Z,840
2017-06-16T13:37:38.169Z,840
2017-06-16T13:38:40.903Z,855
2017-06-16T13:39:43.615Z,860
2017-06-16T13:40:46.414Z,870
2017-06-16T13:41:49.087Z,865
2017-06-16T13:42:51.671Z,835
2017-06-16T13:43:54.279Z,810
2017-06-16T13:44:56.884Z,780
2017-06-16T13:45:59.567Z,755
2017-06-16T13:47:02.152Z,735
2017-06-16T13:48:04.841Z,755
2017-06-16T13:49:07.523Z,760
2017-06-16T13:50:10.106Z,785
2017-06-16T13:51:12.706Z,815
2017-06-16T13:52:15.331Z,825
2017-06-16T13:53:17.867Z,820
2017-06-16T13:54:20.490Z,820
2017-06-16T13:55:23.033Z,845
2017-06-16T13:56:25.746Z,875
2017-06-16T13:57:28.235Z,865
2017-06-16T13:58:30.845Z,890
2017-06-16T13:59:33.543Z,895
2017-06-16T14:00:36.227Z,875
2017-06-16T14:01:38.934Z,850
2017-06-16T14:02:41.631Z,855
2017-06-16T14:03:44.255Z,840
2017-06-16T14:04:46.843Z,810
2017-06-16T14:05:49.375Z,845
2017-06-16T14:06:51.961Z,870
2017-06-16T14:07:54.495Z,930
2017-06-16T14:08:57.088Z,975
2017-06-16T14:09:59.682Z,1040
2017-06-16T14:11:02.216Z,1045
2017-06-16T14:12:04.912Z,955
2017-06-16T14:13:07.566Z,860
2017-06-16T14:14:10.145Z,850
2017-06-16T14:15:12.840Z,965
2017-06-16T14:16:15.502Z,1060
2017-06-16T14:17:18.138Z,1145
2017-06-16T14:18:20.671Z,1015
2017-06-16T14:19:23.224Z,950
2017-06-16T14:20:25.922Z,930
2017-06-16T14:21:28.605Z,945
2017-06-16T14:22:31.290Z,995
2017-06-16T14:23:33.886Z,950
2017-06-16T14:24:36.471Z,945
2017-06-16T14:25:39.061Z,925
2017-06-16T14:26:41.740Z,920
2017-06-16T14:27:44.329Z,880
2017-06-16T14:28:47.021Z,875
2017-06-16T14:29:49.706Z,875
2017-06-16T14:30:52.404Z,890
2017-06-16T14:31:55.093Z,920
2017-06-16T14:32:57.781Z,940
2017-06-16T14:34:00.423Z,990
2017-06-16T14:35:03.006Z,1005
2017-06-16T14:36:05.721Z,1025
2017-06-16T14:37:08.256Z,1045
2017-06-16T14:38:10.867Z,1080
2017-06-16T14:39:13.381Z,1130
2017-06-16T14:40:15.926Z,1195
2017-06-16T14:41:18.521Z,1180
2017-06-16T14:42:21.218Z,1220
2017-06-16T14:43:23.936Z,1220
2017-06-16T14:44:26.519Z,1220
2017-06-16T14:45:29.131Z,1170
2017-06-16T14:46:31.668Z,1110
2017-06-16T14:47:34.310Z,1055
2017-06-16T14:48:36.978Z,1030
2017-06-16T14:49:39.574Z,1030
2017-06-16T14:50:42.164Z,1045
2017-06-16T14:51:44.758Z,1060
2017-06-16T14:52:47.352Z,1045
2017-06-16T14:53:49.944Z,1020
2017-06-16T14:54:52.528Z,1010
2017-06-16T14:55:55.226Z,980
2017-06-16T14:56:57.828Z,960
2017-06-16T14:58:00.540Z,960
2017-06-16T14:59:03.279Z,1000
2017-06-16T15:00:05.981Z,1020
2017-06-16T15:01:08.667Z,1020
2017-06-16T15:02:11.269Z,1010
2017-06-16T15:03:13.858Z,1000
2017-06-16T15:04:16.599Z,990
2017-06-16T15:05:19.210Z,980
2017-06-16T15:06:21.920Z,960
2017-06-16T15:07:24.628Z,945
2017-06-16T15:08:27.300Z,935
2017-06-16T15:09:29.990Z,905
2017-06-16T15:10:32.542Z,885
2017-06-16T15:11:35.082Z,870
2017-06-16T15:12:37.765Z,865
2017-06-16T15:13:40.447Z,855
2017-06-16T15:14:43.027Z,855
2017-06-16T15:15:45.627Z,875
2017-06-16T15:16:48.214Z,910
2017-06-16T15:17:50.805Z,940
2017-06-16T15:18:53.444Z,930
2017-06-16T15:19:56.110Z,930
2017-06-16T15:20:58.596Z,940
2017-06-16T15:22:01.097Z,925
2017-06-16T15:23:03.771Z,900
2017-06-16T15:24:06.394Z,890
2017-06-16T15:25:08.953Z,900
2017-06-16T15:26:11.614Z,900
2017-06-16T15:27:14.288Z,895
2017-06-16T15:28:16.977Z,870
2017-06-16T15:29:19.682Z,845
2017-06-16T15:30:22.368Z,835
2017-06-16T15:31:25.033Z,830
2017-06-16T15:32:27.548Z,830
2017-06-16T15:33:30.088Z,830
2017-06-16T15:34:32.776Z,825
2017-06-16T15:35:35.459Z,820
2017-06-16T15:36:38.142Z,820
2017-06-16T15:37:40.925Z,805
2017-06-16T15:38:43.521Z,800
2017-06-16T15:39:46.125Z,790
2017-06-16T15:40:48.715Z,780
2017-06-16T15:41:51.311Z,780
2017-06-16T15:42:53.902Z,780
2017-06-16T15:43:56.593Z,785
2017-06-16T15:44:59.213Z,790
2017-06-16T15:46:01.794Z,790
2017-06-16T15:47:04.534Z,780
2017-06-16T15:48:07.123Z,755
2017-06-16T15:49:09.817Z,735
2017-06-16T15:50:12.462Z,715
2017-06-16T15:51:15.059Z,705
2017-06-16T15:52:17.685Z,700
2017-06-16T15:53:20.268Z,695
2017-06-16T15:54:22.816Z,685
2017-06-16T15:55:25.430Z,685
2017-06-16T15:56:27.971Z,685
2017-06-16T15:57:30.485Z,695
2017-06-16T15:58:32.993Z,690
2017-06-16T15:59:35.532Z,685
2017-06-16T16:00:38.148Z,685
2017-06-16T16:01:40.852Z,690
2017-06-16T16:02:43.396Z,690
2017-06-16T16:03:45.950Z,690
2017-06-16T16:04:48.640Z,690
2017-06-16T16:05:51.320Z,690
2017-06-16T16:06:54.007Z,680
2017-06-16T16:07:56.691Z,670
2017-06-16T16:08:59.221Z,670
2017-06-16T16:10:01.917Z,675
2017-06-16T16:11:04.607Z,695
2017-06-16T16:12:07.190Z,705
2017-06-16T16:13:09.807Z,695
2017-06-16T16:14:12.326Z,675
2017-06-16T16:15:14.950Z,645
2017-06-16T16:16:17.597Z,630
2017-06-16T16:17:20.306Z,625
2017-06-16T16:18:23.011Z,635
2017-06-16T16:19:25.757Z,635
2017-06-16T16:20:28.447Z,635
2017-06-16T16:21:31.026Z,640
2017-06-16T16:22:33.728Z,645
2017-06-16T16:23:36.340Z,650
2017-06-16T16:24:39.083Z,660
2017-06-16T16:25:41.617Z,670
2017-06-16T16:26:44.215Z,685
2017-06-16T16:27:46.734Z,690
2017-06-16T16:28:49.536Z,700
2017-06-16T16:29:52.230Z,695
2017-06-16T16:30:54.966Z,680
2017-06-16T16:31:57.691Z,660
2017-06-16T16:33:00.436Z,635
2017-06-16T16:34:03.140Z,620
2017-06-16T16:35:06.556Z,615
2017-06-16T16:36:09.110Z,615
2017-06-16T16:37:11.726Z,615
2017-06-16T16:38:14.562Z,610
2017-06-16T16:39:17.057Z,610
2017-06-16T16:40:19.583Z,585
2017-06-16T16:41:22.165Z,550
2017-06-16T16:42:24.875Z,515
2017-06-16T16:43:27.484Z,475
2017-06-16T16:44:30.061Z,455
2017-06-16T16:45:32.620Z,435
2017-06-16T16:46:35.226Z,435
2017-06-16T16:47:37.988Z,440
2017-06-16T16:48:40.603Z,440
2017-06-16T16:49:43.328Z,440
2017-06-16T16:50:46.075Z,445
2017-06-16T16:51:48.675Z,455
2017-06-16T16:52:51.259Z,475
2017-06-16T16:53:53.841Z,480
2017-06-16T16:54:56.552Z,490
2017-06-16T16:55:59.259Z,475
2017-06-16T16:57:01.922Z,475
2017-06-16T16:58:05.409Z,510
2017-06-16T16:59:07.317Z,530
2017-06-16T17:00:09.997Z,530
2017-06-16T17:01:12.696Z,530
2017-06-16T17:02:15.393Z,515
2017-06-16T17:03:17.933Z,505
2017-06-16T17:04:20.529Z,505
2017-06-16T17:05:23.030Z,515
2017-06-16T17:06:25.687Z,540
2017-06-16T17:07:28.171Z,540
2017-06-16T17:08:30.658Z,535
2017-06-16T17:09:33.523Z,545
2017-06-16T17:10:36.101Z,560
2017-06-16T17:11:38.682Z,570
2017-06-16T17:12:41.420Z,580
2017-06-16T17:13:43.991Z,595
2017-06-16T17:14:46.589Z,605
2017-06-16T17:15:49.183Z,605
2017-06-16T17:16:51.902Z,595
2017-06-16T17:17:54.598Z,610
2017-06-16T17:18:57.307Z,625
2017-06-16T17:19:59.872Z,645
2017-06-16T17:21:02.415Z,655
2017-06-16T17:22:05.174Z,680
2017-06-16T17:23:07.939Z,685
2017-06-16T17:24:10.510Z,670
2017-06-16T17:25:13.135Z,665
2017-06-16T17:26:15.622Z,665
2017-06-16T17:27:18.196Z,675
2017-06-16T17:28:20.788Z,685
2017-06-16T17:29:23.409Z,700
2017-06-16T17:30:26.001Z,700
2017-06-16T17:31:28.594Z,715
2017-06-16T17:32:31.187Z,735
2017-06-16T17:33:33.791Z,755
2017-06-16T17:34:36.329Z,765
2017-06-16T17:35:38.860Z,775
2017-06-16T17:36:41.398Z,775
2017-06-16T17:37:44.003Z,765
2017-06-16T17:38:47.544Z,750
2017-06-16T17:39:50.266Z,735
2017-06-16T17:40:52.882Z,730
2017-06-16T17:41:55.474Z,745
2017-06-16T17:42:58.192Z,755
2017-06-16T17:44:00.840Z,780
2017-06-16T17:45:03.538Z,775
2017-06-16T17:46:06.249Z,775
2017-06-16T17:47:08.960Z,820
2017-06-16T17:48:11.662Z,850
2017-06-16T17:49:14.194Z,875
2017-06-16T17:50:16.898Z,895
2017-06-16T17:51:19.460Z,880
2017-06-16T17:52:22.051Z,835
2017-06-16T17:53:24.749Z,785
2017-06-16T17:54:27.513Z,760
2017-06-16T17:55:30.190Z,755
2017-06-16T17:56:32.880Z,775
2017-06-16T17:57:35.408Z,755
2017-06-16T17:58:38.003Z,735
2017-06-16T17:59:40.581Z,710
2017-06-16T18:00:43.313Z,665
2017-06-16T18:01:45.798Z,665
2017-06-16T18:02:48.529Z,705
2017-06-16T18:03:51.107Z,735
2017-06-16T18:04:53.597Z,755
2017-06-16T18:05:56.199Z,765
2017-06-16T18:06:58.789Z,750
2017-06-16T18:08:01.383Z,725
2017-06-16T18:09:04.109Z,715
2017-06-16T18:10:06.680Z,720
2017-06-16T18:11:09.361Z,720
2017-06-16T18:12:12.034Z,740
2017-06-16T18:13:14.674Z,755
2017-06-16T18:14:17.367Z,760
2017-06-16T18:15:20.094Z,740
2017-06-16T18:16:22.801Z,710
2017-06-16T18:17:25.572Z,690
2017-06-16T18:18:28.174Z,695
2017-06-16T18:19:30.782Z,685
2017-06-16T18:20:33.695Z,660
2017-06-16T18:21:36.292Z,640
2017-06-16T18:22:38.869Z,650
2017-06-16T18:23:41.481Z,665
2017-06-16T18:24:44.069Z,685
2017-06-16T18:25:46.663Z,695
2017-06-16T18:26:49.218Z,690
2017-06-16T18:27:51.879Z,665
2017-06-16T18:28:54.415Z,670
2017-06-16T18:29:57.248Z,695
2017-06-16T18:30:59.824Z,705
2017-06-16T18:32:02.440Z,705
2017-06-16T18:33:05.037Z,680
2017-06-16T18:34:07.733Z,645
2017-06-16T18:35:10.442Z,610
2017-06-16T18:36:13.134Z,600
2017-06-16T18:37:15.843Z,625
2017-06-16T18:38:18.599Z,650
2017-06-16T18:39:21.377Z,635
2017-06-16T18:40:24.055Z,630
2017-06-16T18:41:26.847Z,625
2017-06-16T18:42:29.520Z,620
2017-06-16T18:43:32.148Z,600
2017-06-16T18:44:34.754Z,620
2017-06-16T18:45:37.349Z,635
2017-06-16T18:46:40.263Z,660
2017-06-16T18:47:42.851Z,665
2017-06-16T18:48:45.582Z,670
2017-06-16T18:49:50.549Z,690
2017-06-16T18:50:53.137Z,725
2017-06-16T18:51:55.751Z,760
2017-06-16T18:52:58.687Z,795
2017-06-16T18:54:01.288Z,825
2017-06-16T18:55:03.871Z,850
2017-06-16T18:56:09.014Z,860
2017-06-16T18:57:11.570Z,850
2017-06-16T18:58:14.071Z,840
2017-06-16T18:59:16.688Z,870
2017-06-16T19:00:20.312Z,900
2017-06-16T19:01:22.999Z,910
2017-06-16T19:02:29.069Z,885
2017-06-16T19:03:31.708Z,855
2017-06-16T19:04:34.390Z,805
2017-06-16T19:05:37.075Z,765
2017-06-16T19:06:40.362Z,755
2017-06-16T19:07:43.036Z,780
2017-06-16T19:08:45.519Z,785
2017-06-16T19:09:48.126Z,785
2017-06-16T19:10:50.670Z,750
2017-06-16T19:11:53.475Z,705
2017-06-16T19:12:56.176Z,665
2017-06-16T19:13:58.770Z,640
2017-06-16T19:15:01.371Z,630
2017-06-16T19:16:03.958Z,625
2017-06-16T19:17:06.683Z,630
2017-06-16T19:18:09.361Z,635
2017-06-16T19:19:12.059Z,650
2017-06-16T19:20:14.749Z,685
2017-06-16T19:21:17.334Z,720
2017-06-16T19:22:20.152Z,750
2017-06-16T19:23:22.743Z,760
2017-06-16T19:24:25.314Z,770
2017-06-16T19:25:27.948Z,755
2017-06-16T19:26:30.560Z,720
2017-06-16T19:27:33.316Z,705
2017-06-16T19:28:35.979Z,705
2017-06-16T19:29:38.658Z,705
2017-06-16T19:30:41.195Z,715
2017-06-16T19:31:43.815Z,715
2017-06-16T19:32:46.946Z,710
2017-06-16T19:33:49.650Z,695
2017-06-16T19:34:52.334Z,685
2017-06-16T19:35:55.078Z,670
2017-06-16T19:36:57.778Z,655
2017-06-16T19:38:00.299Z,650
2017-06-16T19:39:02.852Z,630
2017-06-16T19:40:05.459Z,625
2017-06-16T19:41:08.000Z,610
2017-06-16T19:42:10.497Z,615
2017-06-16T19:43:13.103Z,645
2017-06-16T19:44:15.668Z,660
2017-06-16T19:45:18.236Z,655
2017-06-16T19:46:20.919Z,635
2017-06-16T19:47:23.615Z,615
2017-06-16T19:48:26.375Z,570
2017-06-16T19:49:29.010Z,565
2017-06-16T19:50:31.569Z,555
2017-06-16T19:51:34.184Z,565
2017-06-16T19:52:36.907Z,565
2017-06-16T19:53:39.448Z,575
2017-06-16T19:54:42.158Z,575
2017-06-16T19:55:44.838Z,570
2017-06-16T19:56:47.543Z,580
2017-06-16T19:57:50.231Z,600
2017-06-16T19:58:52.822Z,605
2017-06-16T19:59:55.419Z,590
2017-06-16T20:00:58.005Z,565
2017-06-16T20:02:00.721Z,540
2017-06-16T20:03:03.403Z,540
2017-06-16T20:04:06.118Z,560
2017-06-16T20:05:08.784Z,585
2017-06-16T20:06:11.484Z,595
2017-06-16T20:07:14.158Z,580
2017-06-16T20:08:16.775Z,585
2017-06-16T20:09:19.284Z,600
2017-06-16T20:10:21.819Z,635
2017-06-16T20:11:24.359Z,660
2017-06-16T20:12:26.892Z,685
2017-06-16T20:13:29.436Z,700
2017-06-16T20:14:32.032Z,725
2017-06-16T20:15:34.574Z,780
2017-06-16T20:16:37.188Z,820
2017-06-16T20:17:39.774Z,830
2017-06-16T20:18:42.328Z,800
2017-06-16T20:19:44.994Z,790
2017-06-16T20:20:47.609Z,805
2017-06-16T20:21:50.154Z,810
2017-06-16T20:22:52.811Z,805
2017-06-16T20:23:55.415Z,790
2017-06-16T20:24:58.004Z,745
2017-06-16T20:26:00.672Z,720
2017-06-16T20:27:03.271Z,710
2017-06-16T20:28:05.969Z,685
2017-06-16T20:29:08.619Z,670
2017-06-16T20:30:11.269Z,695
2017-06-16T20:31:13.877Z,690
2017-06-16T20:32:16.626Z,680
2017-06-16T20:33:19.355Z,660
2017-06-16T20:34:22.042Z,610
2017-06-16T20:35:24.719Z,595
2017-06-16T20:36:27.374Z,615
2017-06-16T20:37:29.967Z,645
2017-06-16T20:38:32.458Z,665
2017-06-16T20:39:35.199Z,660
2017-06-16T20:40:37.875Z,645
2017-06-16T20:41:40.409Z,635
2017-06-16T20:42:43.008Z,625
2017-06-16T20:43:45.653Z,615
2017-06-16T20:44:48.286Z,620
2017-06-16T20:45:50.988Z,635
2017-06-16T20:46:53.667Z,640
2017-06-16T20:47:56.428Z,695
2017-06-16T20:48:59.025Z,680
2017-06-16T20:50:01.630Z,655
2017-06-16T20:51:04.211Z,620
2017-06-16T20:52:06.911Z,570
2017-06-16T20:53:09.506Z,545
2017-06-16T20:54:12.107Z,550
2017-06-16T20:55:14.812Z,580
2017-06-16T20:56:17.393Z,600
2017-06-16T20:57:20.094Z,615
2017-06-16T20:58:22.856Z,620
2017-06-16T20:59:25.530Z,605
2017-06-16T21:00:28.358Z,605
2017-06-16T21:01:30.880Z,610
2017-06-16T21:02:33.544Z,635
2017-06-16T21:03:36.137Z,670
2017-06-16T21:04:38.705Z,695
2017-06-16T21:05:41.290Z,700
2017-06-16T21:06:43.889Z,660
2017-06-16T21:07:46.478Z,600
2017-06-16T21:08:49.118Z,545
2017-06-16T21:09:51.734Z,525
2017-06-16T21:10:54.265Z,490
2017-06-16T21:11:56.852Z,455
2017-06-16T21:12:59.468Z,455
2017-06-16T21:14:01.960Z,470
2017-06-16T21:15:04.457Z,470
2017-06-16T21:16:07.013Z,455
2017-06-16T21:17:09.608Z,450
2017-06-16T21:18:12.239Z,460
2017-06-16T21:19:14.958Z,495
2017-06-16T21:20:17.506Z,550
2017-06-16T21:21:20.082Z,600
2017-06-16T21:22:22.791Z,620
2017-06-16T21:23:25.470Z,635
2017-06-16T21:24:28.155Z,655
2017-06-16T21:25:30.855Z,690
2017-06-16T21:26:33.554Z,675
2017-06-16T21:27:36.261Z,610
2017-06-16T21:28:38.940Z,540
2017-06-16T21:29:41.627Z,475
2017-06-16T21:30:44.212Z,455
2017-06-16T21:31:46.874Z,455
2017-06-16T21:32:49.508Z,430
2017-06-16T21:33:52.115Z,385
2017-06-16T21:34:54.767Z,340
2017-06-16T21:35:57.371Z,310
2017-06-16T21:36:59.898Z,300
2017-06-16T21:38:02.612Z,335
2017-06-16T21:39:05.194Z,375
2017-06-16T21:40:07.784Z,360
2017-06-16T21:41:10.331Z,340
2017-06-16T21:42:12.920Z,315
2017-06-16T21:43:15.609Z,330
2017-06-16T21:44:18.314Z,360
2017-06-16T21:45:21.001Z,385
2017-06-16T21:46:23.673Z,355
2017-06-16T21:47:26.254Z,330
2017-06-16T21:48:28.846Z,310
2017-06-16T21:49:31.431Z,310
2017-06-16T21:50:34.121Z,325
2017-06-16T21:51:36.764Z,365
2017-06-16T21:52:39.452Z,370
2017-06-16T21:53:42.142Z,360
2017-06-16T21:54:44.841Z,350
2017-06-16T21:55:47.480Z,350
2017-06-16T21:56:50.158Z,350
2017-06-16T21:57:52.924Z,355
2017-06-16T21:58:55.464Z,355
2017-06-16T21:59:58.073Z,365
2017-06-16T22:01:00.694Z,390
2017-06-16T22:02:03.171Z,395
2017-06-16T22:03:05.709Z,380
2017-06-16T22:04:08.247Z,365
2017-06-16T22:05:10.975Z,325
2017-06-16T22:06:13.680Z,315
2017-06-16T22:07:16.214Z,295
2017-06-16T22:08:18.768Z,295
2017-06-16T22:09:21.352Z,300
2017-06-16T22:10:23.973Z,300
2017-06-16T22:11:26.659Z,310
2017-06-16T22:12:29.351Z,325
2017-06-16T22:13:32.106Z,335
2017-06-16T22:14:34.781Z,335
2017-06-16T22:15:37.480Z,330
2017-06-16T22:16:40.168Z,325
2017-06-16T22:17:42.798Z,330
2017-06-16T22:18:45.408Z,335
2017-06-16T22:19:47.984Z,335
2017-06-16T22:20:50.696Z,340
2017-06-16T22:21:53.374Z,340
2017-06-16T22:22:56.047Z,345
2017-06-16T22:23:58.802Z,345
2017-06-16T22:25:01.390Z,350
2017-06-16T22:26:04.008Z,350
2017-06-16T22:27:06.601Z,350
2017-06-16T22:28:09.193Z,345
2017-06-16T22:29:11.787Z,340
2017-06-16T22:30:14.481Z,335
2017-06-16T22:31:17.165Z,335
2017-06-16T22:32:19.867Z,320
2017-06-16T22:33:22.509Z,315
2017-06-16T22:34:25.185Z,310
2017-06-16T22:35:27.791Z,310
2017-06-16T22:36:30.336Z,305
2017-06-16T22:37:33.088Z,310
2017-06-16T22:38:35.651Z,310
2017-06-16T22:39:38.318Z,315
2017-06-16T22:40:40.889Z,330
2017-06-16T22:41:43.565Z,325
2017-06-16T22:42:46.233Z,325
2017-06-16T22:43:48.902Z,325
2017-06-16T22:44:51.573Z,330
2017-06-16T22:45:54.052Z,335
2017-06-16T22:46:56.640Z,345
2017-06-16T22:47:59.164Z,345
2017-06-16T22:49:01.701Z,340
2017-06-16T22:50:04.259Z,330
2017-06-16T22:51:06.898Z,330
2017-06-16T22:52:09.458Z,325
2017-06-16T22:53:12.182Z,325
2017-06-16T22:54:14.774Z,325
2017-06-16T22:55:17.362Z,325
2017-06-16T22:56:19.948Z,320
2017-06-16T22:57:22.594Z,315
2017-06-16T22:58:25.223Z,310
2017-06-16T22:59:28.638Z,305
2017-06-16T23:00:31.309Z,300
2017-06-16T23:01:33.883Z,295
2017-06-16T23:02:36.584Z,290
2017-06-16T23:03:39.271Z,285
2017-06-16T23:04:41.945Z,280
2017-06-16T23:05:44.629Z,270
2017-06-16T23:06:47.308Z,265
2017-06-16T23:07:49.988Z,260
2017-06-16T23:08:52.687Z,255
2017-06-16T23:09:55.360Z,250
2017-06-16T23:10:57.886Z,250
2017-06-16T23:12:00.427Z,245
2017-06-16T23:13:03.077Z,245
2017-06-16T23:14:05.745Z,250
2017-06-16T23:15:08.229Z,245
2017-06-16T23:16:10.869Z,245
2017-06-16T23:17:13.352Z,245
2017-06-16T23:18:15.991Z,245
2017-06-16T23:19:18.732Z,245
2017-06-16T23:20:21.320Z,250
2017-06-16T23:21:23.950Z,245
2017-06-16T23:22:26.528Z,245
2017-06-16T23:23:29.212Z,245
2017-06-16T23:24:31.796Z,240
2017-06-16T23:25:34.332Z,240
2017-06-16T23:26:37.036Z,240
2017-06-16T23:27:39.600Z,240
2017-06-16T23:28:42.227Z,240
2017-06-16T23:29:44.750Z,240
2017-06-16T23:30:47.356Z,235
2017-06-16T23:31:50.051Z,235
2017-06-16T23:32:52.735Z,235
2017-06-16T23:33:55.417Z,235
2017-06-16T23:34:57.999Z,230
2017-06-16T23:36:00.622Z,235
2017-06-16T23:39:42.616Z,235
2017-06-16T23:40:45.303Z,235
2017-06-16T23:41:48.028Z,230
2017-06-16T23:42:50.709Z,230
2017-06-16T23:43:53.354Z,230
2017-06-16T23:44:55.934Z,230
2017-06-16T23:45:58.710Z,230
2017-06-16T23:47:01.290Z,230
2017-06-16T23:48:03.901Z,225
2017-06-16T23:49:06.500Z,225
2017-06-16T23:50:09.129Z,225
2017-06-16T23:51:11.729Z,225
2017-06-16T23:52:14.308Z,220
2017-06-16T23:53:16.982Z,220
2017-06-16T23:54:19.464Z,220
2017-06-16T23:55:22.197Z,220
2017-06-16T23:56:24.723Z,215
2017-06-16T23:57:27.328Z,215
2017-06-16T23:58:29.907Z,210
2017-06-16T23:59:32.526Z,205
